createdAt,value
2018-07-02T00:01:18.934Z,33.40
2018-07-02T00:03:50.955Z,33.30
2018-07-02T00:06:42.771Z,33.30
2018-07-02T00:11:45.742Z,33.30
2018-07-02T00:14:17.899Z,33.30
2018-07-02T00:16:49.782Z,33.30
2018-07-02T00:19:21.899Z,33.30
2018-07-02T00:21:53.950Z,33.20
2018-07-02T00:26:56.731Z,33.20
2018-07-02T00:29:28.650Z,33.20
2018-07-02T00:32:00.521Z,33.20
2018-07-02T00:37:03.127Z,33.10
2018-07-02T00:39:36.899Z,33.20
2018-07-02T00:42:08.787Z,33.20
2018-07-02T00:44:40.910Z,33.20
2018-07-02T00:49:44.024Z,33.10
2018-07-02T00:52:15.676Z,33.10
2018-07-02T00:59:49.936Z,33.00
2018-07-02T01:04:54.376Z,32.90
2018-07-02T01:07:26.077Z,32.90
2018-07-02T01:09:58.734Z,32.80
2018-07-02T01:12:30.330Z,32.80
2018-07-02T01:15:02.255Z,32.70
2018-07-02T01:17:34.191Z,32.60
2018-07-02T01:20:06.531Z,32.50
2018-07-02T01:25:09.530Z,32.40
2018-07-02T01:27:41.116Z,32.40
2018-07-02T01:30:12.909Z,32.50
2018-07-02T01:32:44.870Z,32.50
2018-07-02T01:35:16.598Z,32.50
2018-07-02T01:37:48.091Z,32.50
2018-07-02T01:40:21.432Z,32.40
2018-07-02T01:42:53.378Z,32.50
2018-07-02T01:45:25.442Z,32.50
2018-07-02T01:47:57.482Z,32.60
2018-07-02T01:50:29.324Z,32.50
2018-07-02T01:53:01.102Z,32.60
2018-07-02T01:55:33.076Z,32.50
2018-07-02T01:58:04.861Z,32.60
2018-07-02T02:00:36.917Z,32.50
2018-07-02T02:05:40.492Z,32.50
2018-07-02T02:08:12.305Z,32.60
2018-07-02T02:10:44.830Z,32.50
2018-07-02T02:13:16.858Z,32.60
2018-07-02T02:15:49.093Z,32.50
2018-07-02T02:18:20.770Z,32.50
2018-07-02T02:23:23.396Z,32.60
2018-07-02T02:26:05.576Z,32.70
2018-07-02T02:28:39.345Z,32.70
2018-07-02T02:31:11.338Z,32.70
2018-07-02T02:33:42.969Z,32.70
2018-07-02T02:36:14.825Z,32.70
2018-07-02T02:38:46.618Z,32.70
2018-07-02T02:41:20.476Z,32.80
2018-07-02T02:43:52.599Z,32.90
2018-07-02T02:46:24.442Z,33.00
2018-07-02T02:48:56.322Z,33.10
2018-07-02T02:51:28.544Z,33.10
2018-07-02T02:54:00.390Z,33.20
2018-07-02T02:56:32.494Z,33.20
2018-07-02T02:59:04.519Z,33.30
2018-07-02T03:01:36.663Z,33.50
2018-07-02T03:04:08.621Z,33.60
2018-07-02T03:06:40.958Z,33.70
2018-07-02T03:09:12.729Z,33.70
2018-07-02T03:11:44.910Z,33.80
2018-07-02T03:14:16.969Z,33.90
2018-07-02T03:16:49.085Z,34.00
2018-07-02T03:19:20.649Z,34.10
2018-07-02T03:21:52.730Z,34.10
2018-07-02T03:24:24.452Z,34.20
2018-07-02T03:26:56.470Z,34.20
2018-07-02T03:29:28.212Z,34.30
2018-07-02T03:32:00.475Z,34.50
2018-07-02T03:34:32.570Z,34.70
2018-07-02T03:37:04.913Z,34.80
2018-07-02T03:39:36.853Z,34.70
2018-07-02T03:42:10.594Z,34.80
2018-07-02T03:44:42.578Z,35.10
2018-07-02T03:47:15.212Z,35.20
2018-07-02T03:49:47.082Z,35.20
2018-07-02T03:52:19.715Z,35.40
2018-07-02T03:54:51.518Z,35.50
2018-07-02T03:57:23.635Z,35.50
2018-07-02T03:59:55.322Z,35.80
2018-07-02T04:02:27.443Z,36.00
2018-07-02T04:04:59.311Z,36.30
2018-07-02T04:07:31.479Z,36.30
2018-07-02T04:10:03.470Z,36.60
2018-07-02T04:12:35.542Z,36.90
2018-07-02T04:15:07.487Z,37.20
2018-07-02T04:17:40.170Z,37.30
2018-07-02T04:20:12.017Z,37.50
2018-07-02T04:22:44.415Z,37.80
2018-07-02T04:25:16.223Z,38.00
2018-07-02T04:27:48.279Z,38.10
2018-07-02T04:30:20.206Z,38.30
2018-07-02T04:32:53.353Z,38.60
2018-07-02T04:35:25.046Z,38.80
2018-07-02T04:37:57.285Z,39.10
2018-07-02T04:40:29.065Z,39.40
2018-07-02T04:43:02.078Z,39.50
2018-07-02T04:45:34.045Z,39.80
2018-07-02T04:48:06.370Z,40.10
2018-07-02T04:50:38.499Z,40.20
2018-07-02T04:53:10.783Z,40.60
2018-07-02T04:55:42.700Z,41.10
2018-07-02T04:58:15.129Z,42.20
2018-07-02T05:00:46.894Z,43.10
2018-07-02T05:03:18.950Z,44.30
2018-07-02T05:05:50.857Z,45.10
2018-07-02T05:08:22.681Z,45.60
2018-07-02T05:10:54.313Z,45.40
2018-07-02T05:13:26.339Z,45.60
2018-07-02T05:18:29.046Z,44.90
2018-07-02T05:21:00.797Z,44.90
2018-07-02T05:23:32.725Z,44.60
2018-07-02T05:26:04.690Z,44.70
2018-07-02T05:28:36.746Z,45.20
2018-07-02T05:31:08.681Z,45.70
2018-07-02T05:33:40.935Z,46.50
2018-07-02T05:36:12.827Z,47.10
2018-07-02T05:38:44.394Z,47.50
2018-07-02T05:41:16.596Z,47.80
2018-07-02T05:43:49.725Z,48.30
2018-07-02T05:46:21.796Z,48.60
2018-07-02T05:48:53.697Z,48.50
2018-07-02T05:51:25.574Z,47.70
2018-07-02T05:53:57.738Z,47.30
2018-07-02T05:56:29.659Z,46.80
2018-07-02T05:59:01.861Z,46.40
2018-07-02T06:04:04.822Z,46.30
2018-07-02T06:06:36.828Z,46.00
2018-07-02T06:09:12.073Z,46.10
2018-07-02T06:11:43.898Z,46.10
2018-07-02T06:14:16.123Z,46.50
2018-07-02T06:19:19.057Z,47.80
2018-07-02T06:21:50.819Z,48.40
2018-07-02T06:24:23.090Z,48.90
2018-07-02T06:26:55.010Z,49.50
2018-07-02T06:31:58.262Z,50.10
2018-07-02T06:34:34.439Z,49.80
2018-07-02T06:37:06.473Z,49.60
2018-07-02T06:39:38.268Z,49.20
2018-07-02T06:42:10.027Z,49.00
2018-07-02T06:44:43.622Z,48.70
2018-07-02T06:47:15.284Z,48.00
2018-07-02T06:49:47.275Z,47.20
2018-07-02T06:52:19.064Z,46.80
2018-07-02T06:57:22.298Z,46.00
2018-07-02T06:59:54.301Z,45.40
2018-07-02T07:02:25.986Z,45.30
2018-07-02T07:04:58.269Z,45.50
2018-07-02T07:07:29.995Z,45.10
2018-07-02T07:10:02.375Z,45.20
2018-07-02T07:12:34.230Z,44.90
2018-07-02T07:15:06.750Z,45.10
2018-07-02T07:17:38.531Z,45.30
2018-07-02T07:20:10.798Z,45.40
2018-07-02T07:22:42.603Z,46.30
2018-07-02T07:25:14.694Z,46.70
2018-07-02T07:27:46.586Z,47.40
2018-07-02T07:30:18.603Z,47.60
2018-07-02T07:32:54.798Z,47.80
2018-07-02T07:37:57.757Z,48.30
2018-07-02T07:40:29.641Z,48.70
2018-07-02T07:43:01.471Z,48.40
2018-07-02T07:45:34.007Z,47.40
2018-07-02T07:48:05.761Z,46.60
2018-07-02T07:50:37.747Z,45.90
2018-07-02T07:55:40.535Z,44.90
2018-07-02T07:58:12.353Z,44.40
2018-07-02T08:00:44.556Z,44.20
2018-07-02T08:03:16.334Z,44.00
2018-07-02T08:05:48.475Z,43.80
2018-07-02T08:08:20.266Z,43.80
2018-07-02T08:10:52.523Z,43.60
2018-07-02T08:13:24.504Z,43.50
2018-07-02T08:18:27.602Z,43.40
2018-07-02T08:20:59.971Z,43.50
2018-07-02T08:23:31.679Z,43.40
2018-07-02T08:26:03.798Z,43.40
2018-07-02T08:28:35.769Z,43.40
2018-07-02T08:31:08.054Z,43.50
2018-07-02T08:33:39.787Z,43.40
2018-07-02T08:36:11.658Z,43.20
2018-07-02T08:38:43.335Z,43.10
2018-07-02T08:41:15.213Z,43.00
2018-07-02T08:43:47.031Z,42.90
2018-07-02T08:46:20.747Z,42.90
2018-07-02T08:48:52.566Z,42.90
2018-07-02T08:51:24.785Z,42.80
2018-07-02T08:56:27.715Z,42.40
2018-07-02T08:58:59.558Z,42.40
2018-07-02T09:01:31.879Z,42.20
2018-07-02T09:04:03.730Z,42.40
2018-07-02T09:06:35.851Z,42.00
2018-07-02T09:09:11.855Z,42.20
2018-07-02T09:11:43.811Z,42.30
2018-07-02T09:14:15.537Z,42.40
2018-07-02T09:16:47.425Z,42.30
2018-07-02T09:19:19.205Z,42.10
2018-07-02T09:21:51.295Z,42.20
2018-07-02T09:24:23.086Z,42.20
2018-07-02T09:26:55.191Z,42.00
2018-07-02T09:29:27.110Z,42.00
2018-07-02T09:31:58.874Z,42.00
2018-07-02T09:34:30.558Z,42.00
2018-07-02T09:37:02.799Z,42.00
2018-07-02T09:39:34.596Z,41.90
2018-07-02T09:42:06.743Z,41.90
2018-07-02T09:44:38.551Z,42.00
2018-07-02T09:47:12.372Z,42.00
2018-07-02T09:49:44.121Z,41.90
2018-07-02T09:52:16.037Z,41.90
2018-07-02T09:54:47.685Z,41.90
2018-07-02T09:57:19.743Z,42.00
2018-07-02T09:59:51.530Z,41.90
2018-07-02T10:02:23.598Z,42.00
2018-07-02T10:04:55.107Z,42.20
2018-07-02T10:07:26.949Z,42.20
2018-07-02T10:09:58.610Z,42.10
2018-07-02T10:12:30.469Z,42.10
2018-07-02T10:17:33.243Z,42.00
2018-07-02T10:20:05.311Z,41.80
2018-07-02T10:22:37.521Z,41.80
2018-07-02T10:25:09.387Z,42.00
2018-07-02T10:27:41.677Z,41.70
2018-07-02T10:32:44.483Z,41.50
2018-07-02T10:35:16.226Z,41.40
2018-07-02T10:37:48.402Z,41.30
2018-07-02T10:40:20.270Z,41.30
2018-07-02T10:42:52.140Z,41.30
2018-07-02T10:45:23.750Z,41.30
2018-07-02T10:47:56.497Z,41.30
2018-07-02T10:50:28.466Z,41.20
2018-07-02T10:53:00.538Z,41.00
2018-07-02T10:55:32.087Z,40.90
2018-07-02T10:58:04.605Z,40.60
2018-07-02T11:00:36.163Z,40.50
2018-07-02T11:03:08.347Z,40.40
2018-07-02T11:05:40.600Z,40.50
2018-07-02T11:08:12.670Z,40.50
2018-07-02T11:13:16.730Z,40.60
2018-07-02T11:15:48.426Z,40.70
2018-07-02T11:18:20.780Z,40.60
2018-07-02T11:20:52.635Z,40.50
2018-07-02T11:23:24.809Z,40.40
2018-07-02T11:25:56.706Z,40.40
2018-07-02T11:28:28.817Z,40.30
2018-07-02T11:31:00.732Z,40.40
2018-07-02T11:33:32.847Z,40.40
2018-07-02T11:36:04.751Z,40.20
2018-07-02T11:38:36.675Z,40.20
2018-07-02T11:41:08.409Z,40.20
2018-07-02T11:43:40.406Z,40.20
2018-07-02T11:46:12.455Z,40.20
2018-07-02T11:48:45.406Z,40.20
2018-07-02T11:51:17.133Z,40.00
2018-07-02T11:53:49.328Z,40.10
2018-07-02T11:56:20.973Z,40.10
2018-07-02T11:58:53.870Z,40.10
2018-07-02T12:01:25.767Z,40.10
2018-07-02T12:03:57.779Z,40.00
2018-07-02T12:06:29.777Z,40.00
2018-07-02T12:09:01.853Z,39.90
2018-07-02T12:14:05.056Z,39.90
2018-07-02T12:16:36.786Z,39.90
2018-07-02T12:19:09.113Z,39.80
2018-07-02T12:21:40.851Z,39.80
2018-07-02T12:24:12.877Z,39.80
2018-07-02T12:26:44.467Z,39.70
2018-07-02T12:29:16.418Z,39.70
2018-07-02T12:31:48.046Z,39.70
2018-07-02T12:34:20.855Z,39.70
2018-07-02T12:36:52.704Z,39.50
2018-07-02T12:39:24.785Z,39.60
2018-07-02T12:41:56.701Z,39.60
2018-07-02T12:44:29.029Z,39.60
2018-07-02T12:47:00.746Z,39.50
2018-07-02T12:49:33.722Z,39.50
2018-07-02T12:52:05.353Z,39.30
2018-07-02T12:54:37.239Z,39.40
2018-07-02T12:57:09.203Z,39.30
2018-07-02T12:59:41.153Z,39.20
2018-07-02T13:02:12.797Z,39.20
2018-07-02T13:04:44.922Z,39.10
2018-07-02T13:07:16.569Z,39.20
2018-07-02T13:09:48.643Z,39.10
2018-07-02T13:12:20.463Z,39.30
2018-07-02T13:14:52.640Z,39.40
2018-07-02T13:17:24.709Z,39.40
2018-07-02T13:19:56.984Z,39.40
2018-07-02T13:22:28.798Z,39.40
2018-07-02T13:25:00.679Z,39.20
2018-07-02T13:27:32.322Z,39.20
2018-07-02T13:30:04.466Z,39.20
2018-07-02T13:32:36.309Z,39.10
2018-07-02T13:35:08.840Z,39.00
2018-07-02T13:37:40.482Z,38.80
2018-07-02T13:40:13.255Z,38.70
2018-07-02T13:42:45.095Z,38.60
2018-07-02T13:45:16.945Z,38.50
2018-07-02T13:47:48.578Z,38.40
2018-07-02T13:50:22.273Z,38.30
2018-07-02T13:52:53.959Z,38.20
2018-07-02T13:55:26.399Z,38.00
2018-07-02T13:57:58.083Z,38.10
2018-07-02T14:00:30.100Z,38.00
2018-07-02T14:03:01.930Z,37.90
2018-07-02T14:05:33.991Z,37.90
2018-07-02T14:08:06.146Z,37.70
2018-07-02T14:10:38.529Z,37.60
2018-07-02T14:13:10.466Z,37.50
2018-07-02T14:15:42.364Z,37.60
2018-07-02T14:20:45.746Z,37.50
2018-07-02T14:23:17.395Z,37.50
2018-07-02T14:25:49.938Z,37.40
2018-07-02T14:28:21.949Z,37.30
2018-07-02T14:30:54.011Z,37.20
2018-07-02T14:33:25.775Z,37.20
2018-07-02T14:35:58.039Z,37.20
2018-07-02T14:38:29.875Z,37.10
2018-07-02T14:41:02.111Z,37.10
2018-07-02T14:43:34.199Z,37.00
2018-07-02T14:46:06.826Z,37.00
2018-07-02T14:48:38.585Z,36.90
2018-07-02T14:51:12.563Z,36.90
2018-07-02T14:53:44.822Z,36.90
2018-07-02T14:56:16.964Z,36.80
2018-07-02T14:58:55.199Z,36.70
2018-07-02T15:01:27.273Z,36.80
2018-07-02T15:03:59.283Z,36.70
2018-07-02T15:06:31.436Z,36.70
2018-07-02T15:09:03.551Z,36.60
2018-07-02T15:11:35.837Z,36.60
2018-07-02T15:14:07.603Z,36.60
2018-07-02T15:16:39.494Z,36.50
2018-07-02T15:19:11.114Z,36.40
2018-07-02T15:21:43.093Z,36.50
2018-07-02T15:24:14.834Z,36.50
2018-07-02T15:26:47.127Z,36.30
2018-07-02T15:29:18.802Z,36.30
2018-07-02T15:34:21.683Z,36.20
2018-07-02T15:39:24.598Z,36.20
2018-07-02T15:41:56.572Z,36.20
2018-07-02T15:44:28.374Z,36.00
2018-07-02T15:47:00.003Z,36.10
2018-07-02T15:49:32.461Z,36.00
2018-07-02T15:52:05.116Z,35.90
2018-07-02T15:54:36.971Z,36.00
2018-07-02T15:57:09.078Z,35.90
2018-07-02T15:59:40.941Z,36.00
2018-07-02T16:02:12.638Z,36.10
2018-07-02T16:04:44.370Z,36.10
2018-07-02T16:07:16.358Z,36.10
2018-07-02T16:09:48.209Z,36.10
2018-07-02T16:12:20.447Z,36.10
2018-07-02T16:14:52.146Z,36.10
2018-07-02T16:17:24.853Z,36.00
2018-07-02T16:19:56.654Z,35.90
2018-07-02T16:22:30.473Z,36.00
2018-07-02T16:25:02.433Z,36.00
2018-07-02T16:27:34.490Z,36.00
2018-07-02T16:30:06.911Z,35.90
2018-07-02T16:32:39.044Z,35.90
2018-07-02T16:35:10.710Z,35.90
2018-07-02T16:37:42.534Z,35.90
2018-07-02T16:40:14.470Z,35.80
2018-07-02T16:42:46.185Z,35.70
2018-07-02T16:47:49.014Z,35.70
2018-07-02T16:50:21.241Z,35.70
2018-07-02T16:52:54.458Z,35.70
2018-07-02T16:55:26.138Z,35.70
2018-07-02T16:57:58.307Z,35.60
2018-07-02T17:00:30.265Z,35.70
2018-07-02T17:03:02.356Z,35.60
2018-07-02T17:05:34.486Z,35.60
2018-07-02T17:08:07.673Z,35.60
2018-07-02T17:10:39.469Z,35.50
2018-07-02T17:13:12.081Z,35.50
2018-07-02T17:15:44.114Z,35.40
2018-07-02T17:18:16.110Z,35.40
2018-07-02T17:20:47.904Z,35.40
2018-07-02T17:25:51.008Z,35.20
2018-07-02T17:28:22.826Z,35.20
2018-07-02T17:30:54.611Z,35.20
2018-07-02T17:33:26.713Z,35.20
2018-07-02T17:35:58.113Z,35.20
2018-07-02T17:41:01.203Z,35.20
2018-07-02T17:43:33.101Z,35.20
2018-07-02T17:46:05.270Z,35.20
2018-07-02T17:48:37.593Z,35.20
2018-07-02T17:51:09.425Z,35.10
2018-07-02T17:53:42.954Z,35.10
2018-07-02T17:56:15.074Z,34.90
2018-07-02T17:58:47.293Z,34.90
2018-07-02T18:01:19.005Z,34.90
2018-07-02T18:03:51.213Z,34.90
2018-07-02T18:06:23.020Z,34.90
2018-07-02T18:11:25.854Z,34.90
2018-07-02T18:13:57.891Z,34.90
2018-07-02T18:16:30.212Z,34.90
2018-07-02T18:19:02.365Z,34.90
2018-07-02T18:21:34.187Z,34.80
2018-07-02T18:24:05.956Z,34.90
2018-07-02T18:26:39.738Z,34.90
2018-07-02T18:29:12.217Z,34.90
2018-07-02T18:31:43.877Z,34.80
2018-07-02T18:34:16.064Z,34.90
2018-07-02T18:36:47.734Z,34.80
2018-07-02T18:39:19.769Z,34.70
2018-07-02T18:41:51.543Z,34.70
2018-07-02T18:44:23.693Z,34.70
2018-07-02T18:46:55.962Z,34.70
2018-07-02T18:49:28.658Z,34.50
2018-07-02T18:52:00.947Z,34.50
